sensor_id;sensor_type;location;lat;lon;timestamp;pressure;altitude;pressure_sealevel;temperature
76394;BMP180;65216;51.090;-115.352;2023-08-24T00:00:59;86815.40;;;23.30
76394;BMP180;65216;51.090;-115.352;2023-08-24T00:03:28;86812.40;;;23.30
76394;BMP180;65216;51.090;-115.352;2023-08-24T00:05:55;86814.40;;;23.30
76394;BMP180;65216;51.090;-115.352;2023-08-24T00:08:22;86818.00;;;23.30
76394;BMP180;65216;51.090;-115.352;2023-08-24T00:10:50;86817.00;;;23.30
76394;BMP180;65216;51.090;-115.352;2023-08-24T00:13:17;86821.20;;;23.30
76394;BMP180;65216;51.090;-115.352;2023-08-24T00:15:45;86815.40;;;23.34
76394;BMP180;65216;51.090;-115.352;2023-08-24T00:18:13;86784.60;;;23.40
76394;BMP180;65216;51.090;-115.352;2023-08-24T00:20:40;86808.40;;;23.40
76394;BMP180;65216;51.090;-115.352;2023-08-24T00:23:07;86791.00;;;23.40
76394;BMP180;65216;51.090;-115.352;2023-08-24T00:25:34;86798.60;;;23.40
76394;BMP180;65216;51.090;-115.352;2023-08-24T00:28:04;86811.00;;;23.40
76394;BMP180;65216;51.090;-115.352;2023-08-24T00:30:31;86819.80;;;23.46
76394;BMP180;65216;51.090;-115.352;2023-08-24T00:32:58;86821.80;;;23.50
76394;BMP180;65216;51.090;-115.352;2023-08-24T00:35:31;86832.20;;;23.50
76394;BMP180;65216;51.090;-115.352;2023-08-24T00:37:58;86826.40;;;23.50
76394;BMP180;65216;51.090;-115.352;2023-08-24T00:40:26;86828.40;;;23.50
76394;BMP180;65216;51.090;-115.352;2023-08-24T00:42:58;86823.40;;;23.50
76394;BMP180;65216;51.090;-115.352;2023-08-24T00:45:25;86842.40;;;23.48
76394;BMP180;65216;51.090;-115.352;2023-08-24T00:47:52;86840.80;;;23.42
76394;BMP180;65216;51.090;-115.352;2023-08-24T00:50:20;86838.20;;;23.44
76394;BMP180;65216;51.090;-115.352;2023-08-24T00:52:49;86830.40;;;23.40
76394;BMP180;65216;51.090;-115.352;2023-08-24T00:55:17;86836.60;;;23.40
76394;BMP180;65216;51.090;-115.352;2023-08-24T00:57:47;86839.40;;;23.40
76394;BMP180;65216;51.090;-115.352;2023-08-24T01:00:15;86843.20;;;23.40
76394;BMP180;65216;51.090;-115.352;2023-08-24T01:02:42;86873.60;;;23.40
76394;BMP180;65216;51.090;-115.352;2023-08-24T01:05:09;86879.80;;;23.34
76394;BMP180;65216;51.090;-115.352;2023-08-24T01:07:40;86880.80;;;23.30
76394;BMP180;65216;51.090;-115.352;2023-08-24T01:10:09;86887.80;;;23.30
76394;BMP180;65216;51.090;-115.352;2023-08-24T01:15:47;86911.80;;;23.30
76394;BMP180;65216;51.090;-115.352;2023-08-24T01:18:23;86927.60;;;23.30
76394;BMP180;65216;51.090;-115.352;2023-08-24T01:20:54;86929.60;;;23.30
76394;BMP180;65216;51.090;-115.352;2023-08-24T01:26:17;86964.40;;;23.20
76394;BMP180;65216;51.090;-115.352;2023-08-24T01:28:46;86971.40;;;23.20
76394;BMP180;65216;51.090;-115.352;2023-08-24T01:31:17;86997.20;;;23.20
76394;BMP180;65216;51.090;-115.352;2023-08-24T01:33:45;87044.80;;;23.20
76394;BMP180;65216;51.090;-115.352;2023-08-24T01:36:15;87053.60;;;23.20
76394;BMP180;65216;51.090;-115.352;2023-08-24T01:41:53;87067.60;;;23.10
76394;BMP180;65216;51.090;-115.352;2023-08-24T01:44:26;87091.20;;;23.10
76394;BMP180;65216;51.090;-115.352;2023-08-24T01:46:59;87065.20;;;23.10
76394;BMP180;65216;51.090;-115.352;2023-08-24T01:49:27;87082.00;;;23.10
76394;BMP180;65216;51.090;-115.352;2023-08-24T01:51:56;87061.00;;;23.08
76394;BMP180;65216;51.090;-115.352;2023-08-24T01:54:24;87067.40;;;23.00
76394;BMP180;65216;51.090;-115.352;2023-08-24T01:56:51;87041.80;;;23.00
76394;BMP180;65216;51.090;-115.352;2023-08-24T01:59:18;87038.60;;;23.00
76394;BMP180;65216;51.090;-115.352;2023-08-24T02:01:45;87025.20;;;23.00
76394;BMP180;65216;51.090;-115.352;2023-08-24T02:04:12;86996.60;;;22.94
76394;BMP180;65216;51.090;-115.352;2023-08-24T02:06:40;86989.60;;;22.90
76394;BMP180;65216;51.090;-115.352;2023-08-24T02:09:07;86995.20;;;22.90
76394;BMP180;65216;51.090;-115.352;2023-08-24T02:11:34;87002.40;;;22.90
76394;BMP180;65216;51.090;-115.352;2023-08-24T02:14:01;87000.40;;;22.90
76394;BMP180;65216;51.090;-115.352;2023-08-24T02:16:28;86988.80;;;22.90
76394;BMP180;65216;51.090;-115.352;2023-08-24T02:18:57;86981.20;;;22.90
76394;BMP180;65216;51.090;-115.352;2023-08-24T02:21:24;86998.40;;;22.90
76394;BMP180;65216;51.090;-115.352;2023-08-24T02:23:51;87000.20;;;22.88
76394;BMP180;65216;51.090;-115.352;2023-08-24T02:26:18;87000.20;;;22.82
76394;BMP180;65216;51.090;-115.352;2023-08-24T02:28:48;86988.00;;;22.80
76394;BMP180;65216;51.090;-115.352;2023-08-24T02:31:15;86983.80;;;22.80
76394;BMP180;65216;51.090;-115.352;2023-08-24T02:33:42;86983.40;;;22.80
76394;BMP180;65216;51.090;-115.352;2023-08-24T02:36:09;87003.20;;;22.80
76394;BMP180;65216;51.090;-115.352;2023-08-24T02:38:36;87013.60;;;22.80
76394;BMP180;65216;51.090;-115.352;2023-08-24T02:41:07;87000.80;;;22.80
76394;BMP180;65216;51.090;-115.352;2023-08-24T02:43:35;86999.80;;;22.80
76394;BMP180;65216;51.090;-115.352;2023-08-24T02:46:06;87007.60;;;22.80
76394;BMP180;65216;51.090;-115.352;2023-08-24T02:48:33;86985.60;;;22.80
76394;BMP180;65216;51.090;-115.352;2023-08-24T02:51:03;87011.20;;;22.72
76394;BMP180;65216;51.090;-115.352;2023-08-24T02:53:31;86994.80;;;22.70
76394;BMP180;65216;51.090;-115.352;2023-08-24T02:55:59;86989.60;;;22.70
76394;BMP180;65216;51.090;-115.352;2023-08-24T02:58:27;86988.80;;;22.70
76394;BMP180;65216;51.090;-115.352;2023-08-24T03:00:55;86981.80;;;22.70
76394;BMP180;65216;51.090;-115.352;2023-08-24T03:03:30;86985.60;;;22.60
76394;BMP180;65216;51.090;-115.352;2023-08-24T03:06:02;86991.40;;;22.60
76394;BMP180;65216;51.090;-115.352;2023-08-24T03:08:32;86983.20;;;22.60
76394;BMP180;65216;51.090;-115.352;2023-08-24T03:11:00;87009.80;;;22.60
76394;BMP180;65216;51.090;-115.352;2023-08-24T03:13:29;86996.20;;;22.60
76394;BMP180;65216;51.090;-115.352;2023-08-24T03:16:04;86997.00;;;22.60
76394;BMP180;65216;51.090;-115.352;2023-08-24T03:18:34;87020.20;;;22.60
76394;BMP180;65216;51.090;-115.352;2023-08-24T03:21:01;87013.20;;;22.60
76394;BMP180;65216;51.090;-115.352;2023-08-24T03:23:29;87016.80;;;22.58
76394;BMP180;65216;51.090;-115.352;2023-08-24T03:25:57;87021.00;;;22.58
76394;BMP180;65216;51.090;-115.352;2023-08-24T03:28:24;87038.00;;;22.50
76394;BMP180;65216;51.090;-115.352;2023-08-24T03:30:53;87031.00;;;22.50
76394;BMP180;65216;51.090;-115.352;2023-08-24T03:33:24;87031.60;;;22.50
76394;BMP180;65216;51.090;-115.352;2023-08-24T03:35:51;87032.60;;;22.50
76394;BMP180;65216;51.090;-115.352;2023-08-24T03:38:18;87035.80;;;22.50
76394;BMP180;65216;51.090;-115.352;2023-08-24T03:40:45;87043.40;;;22.50
76394;BMP180;65216;51.090;-115.352;2023-08-24T03:43:12;87027.80;;;22.50
76394;BMP180;65216;51.090;-115.352;2023-08-24T03:45:39;87038.80;;;22.50
76394;BMP180;65216;51.090;-115.352;2023-08-24T03:48:06;87038.00;;;22.50
76394;BMP180;65216;51.090;-115.352;2023-08-24T03:50:33;87042.20;;;22.50
76394;BMP180;65216;51.090;-115.352;2023-08-24T03:53:00;87026.60;;;22.50
76394;BMP180;65216;51.090;-115.352;2023-08-24T03:55:27;87018.60;;;22.50
76394;BMP180;65216;51.090;-115.352;2023-08-24T03:57:56;87035.40;;;22.50
76394;BMP180;65216;51.090;-115.352;2023-08-24T04:00:26;87036.00;;;22.50
76394;BMP180;65216;51.090;-115.352;2023-08-24T04:02:53;87042.20;;;22.50
76394;BMP180;65216;51.090;-115.352;2023-08-24T04:05:20;87038.60;;;22.50
76394;BMP180;65216;51.090;-115.352;2023-08-24T04:07:46;87040.60;;;22.50
76394;BMP180;65216;51.090;-115.352;2023-08-24T04:10:13;87037.20;;;22.50
76394;BMP180;65216;51.090;-115.352;2023-08-24T04:12:40;87041.80;;;22.50
76394;BMP180;65216;51.090;-115.352;2023-08-24T04:15:08;87052.40;;;22.50
76394;BMP180;65216;51.090;-115.352;2023-08-24T04:17:35;87050.60;;;22.50
76394;BMP180;65216;51.090;-115.352;2023-08-24T04:20:02;87053.40;;;22.50
76394;BMP180;65216;51.090;-115.352;2023-08-24T04:22:33;87052.00;;;22.50
76394;BMP180;65216;51.090;-115.352;2023-08-24T04:24:59;87052.80;;;22.44
76394;BMP180;65216;51.090;-115.352;2023-08-24T04:27:26;87048.00;;;22.40
76394;BMP180;65216;51.090;-115.352;2023-08-24T04:29:53;87045.60;;;22.40
76394;BMP180;65216;51.090;-115.352;2023-08-24T04:32:21;87049.80;;;22.40
76394;BMP180;65216;51.090;-115.352;2023-08-24T04:34:48;87048.60;;;22.40
76394;BMP180;65216;51.090;-115.352;2023-08-24T04:37:15;87058.20;;;22.40
76394;BMP180;65216;51.090;-115.352;2023-08-24T04:39:42;87053.80;;;22.40
76394;BMP180;65216;51.090;-115.352;2023-08-24T04:42:09;87049.00;;;22.40
76394;BMP180;65216;51.090;-115.352;2023-08-24T04:44:35;87048.20;;;22.40
76394;BMP180;65216;51.090;-115.352;2023-08-24T04:47:02;87039.00;;;22.40
76394;BMP180;65216;51.090;-115.352;2023-08-24T04:49:32;87048.60;;;22.40
76394;BMP180;65216;51.090;-115.352;2023-08-24T04:51:59;87048.60;;;22.40
76394;BMP180;65216;51.090;-115.352;2023-08-24T04:54:26;87052.80;;;22.40
76394;BMP180;65216;51.090;-115.352;2023-08-24T04:56:53;87042.40;;;22.38
76394;BMP180;65216;51.090;-115.352;2023-08-24T04:59:19;87042.00;;;22.36
76394;BMP180;65216;51.090;-115.352;2023-08-24T05:01:46;87043.40;;;22.36
76394;BMP180;65216;51.090;-115.352;2023-08-24T05:04:13;87049.60;;;22.38
76394;BMP180;65216;51.090;-115.352;2023-08-24T05:06:43;87051.40;;;22.34
76394;BMP180;65216;51.090;-115.352;2023-08-24T05:09:10;87043.60;;;22.32
76394;BMP180;65216;51.090;-115.352;2023-08-24T05:11:36;87047.00;;;22.30
76394;BMP180;65216;51.090;-115.352;2023-08-24T05:14:03;87051.20;;;22.30
76394;BMP180;65216;51.090;-115.352;2023-08-24T05:16:31;87054.20;;;22.30
76394;BMP180;65216;51.090;-115.352;2023-08-24T05:18:58;87047.60;;;22.30
76394;BMP180;65216;51.090;-115.352;2023-08-24T05:21:25;87056.20;;;22.30
76394;BMP180;65216;51.090;-115.352;2023-08-24T05:23:51;87049.40;;;22.30
76394;BMP180;65216;51.090;-115.352;2023-08-24T05:26:19;87052.40;;;22.30
76394;BMP180;65216;51.090;-115.352;2023-08-24T05:28:49;87060.60;;;22.30
76394;BMP180;65216;51.090;-115.352;2023-08-24T05:31:16;87068.60;;;22.28
76394;BMP180;65216;51.090;-115.352;2023-08-24T05:33:43;87057.20;;;22.22
76394;BMP180;65216;51.090;-115.352;2023-08-24T05:36:10;87043.40;;;22.20
76394;BMP180;65216;51.090;-115.352;2023-08-24T05:38:37;87059.20;;;22.20
76394;BMP180;65216;51.090;-115.352;2023-08-24T05:41:04;87065.40;;;22.22
76394;BMP180;65216;51.090;-115.352;2023-08-24T05:43:31;87062.20;;;22.20
76394;BMP180;65216;51.090;-115.352;2023-08-24T05:45:58;87060.00;;;22.20
76394;BMP180;65216;51.090;-115.352;2023-08-24T05:48:27;87051.00;;;22.20
76394;BMP180;65216;51.090;-115.352;2023-08-24T05:50:55;87058.60;;;22.20
76394;BMP180;65216;51.090;-115.352;2023-08-24T05:53:22;87046.20;;;22.20
76394;BMP180;65216;51.090;-115.352;2023-08-24T05:55:49;87039.80;;;22.20
76394;BMP180;65216;51.090;-115.352;2023-08-24T05:58:16;87031.60;;;22.20
76394;BMP180;65216;51.090;-115.352;2023-08-24T06:00:43;87037.60;;;22.20
76394;BMP180;65216;51.090;-115.352;2023-08-24T06:03:10;87044.60;;;22.20
76394;BMP180;65216;51.090;-115.352;2023-08-24T06:05:36;87043.80;;;22.20
76394;BMP180;65216;51.090;-115.352;2023-08-24T06:08:05;87028.60;;;22.20
76394;BMP180;65216;51.090;-115.352;2023-08-24T06:10:32;87022.60;;;22.20
76394;BMP180;65216;51.090;-115.352;2023-08-24T06:13:00;87024.60;;;22.20
76394;BMP180;65216;51.090;-115.352;2023-08-24T06:15:27;87028.40;;;22.20
76394;BMP180;65216;51.090;-115.352;2023-08-24T06:17:55;87036.80;;;22.20
76394;BMP180;65216;51.090;-115.352;2023-08-24T06:20:22;87026.20;;;22.20
76394;BMP180;65216;51.090;-115.352;2023-08-24T06:22:49;87027.20;;;22.20
76394;BMP180;65216;51.090;-115.352;2023-08-24T06:25:17;87030.00;;;22.20
76394;BMP180;65216;51.090;-115.352;2023-08-24T06:27:44;87025.00;;;22.20
76394;BMP180;65216;51.090;-115.352;2023-08-24T06:30:11;87020.80;;;22.20
76394;BMP180;65216;51.090;-115.352;2023-08-24T06:32:39;87025.60;;;22.20
76394;BMP180;65216;51.090;-115.352;2023-08-24T06:35:06;87027.40;;;22.20
76394;BMP180;65216;51.090;-115.352;2023-08-24T06:37:33;87024.60;;;22.20
76394;BMP180;65216;51.090;-115.352;2023-08-24T06:40:00;87026.60;;;22.20
76394;BMP180;65216;51.090;-115.352;2023-08-24T06:42:27;87028.40;;;22.20
76394;BMP180;65216;51.090;-115.352;2023-08-24T06:44:54;87005.20;;;22.20
76394;BMP180;65216;51.090;-115.352;2023-08-24T06:47:23;87014.60;;;22.20
76394;BMP180;65216;51.090;-115.352;2023-08-24T06:49:51;87019.80;;;22.20
76394;BMP180;65216;51.090;-115.352;2023-08-24T06:52:18;87028.00;;;22.20
76394;BMP180;65216;51.090;-115.352;2023-08-24T06:54:45;87032.80;;;22.20
76394;BMP180;65216;51.090;-115.352;2023-08-24T06:57:15;87020.20;;;22.20
76394;BMP180;65216;51.090;-115.352;2023-08-24T06:59:42;87020.60;;;22.16
76394;BMP180;65216;51.090;-115.352;2023-08-24T07:02:08;87018.40;;;22.10
76394;BMP180;65216;51.090;-115.352;2023-08-24T07:04:35;87021.00;;;22.10
76394;BMP180;65216;51.090;-115.352;2023-08-24T07:07:03;87024.40;;;22.10
76394;BMP180;65216;51.090;-115.352;2023-08-24T07:09:30;87019.00;;;22.10
76394;BMP180;65216;51.090;-115.352;2023-08-24T07:11:57;87018.00;;;22.10
76394;BMP180;65216;51.090;-115.352;2023-08-24T07:14:24;87019.00;;;22.10
76394;BMP180;65216;51.090;-115.352;2023-08-24T07:16:51;87017.80;;;22.08
76394;BMP180;65216;51.090;-115.352;2023-08-24T07:19:18;87011.20;;;22.00
76394;BMP180;65216;51.090;-115.352;2023-08-24T07:21:45;87022.20;;;22.00
76394;BMP180;65216;51.090;-115.352;2023-08-24T07:24:15;87030.00;;;22.00
76394;BMP180;65216;51.090;-115.352;2023-08-24T07:26:42;87019.20;;;22.00
76394;BMP180;65216;51.090;-115.352;2023-08-24T07:29:09;87030.40;;;21.98
76394;BMP180;65216;51.090;-115.352;2023-08-24T07:31:36;87026.20;;;21.90
76394;BMP180;65216;51.090;-115.352;2023-08-24T07:34:04;87031.20;;;21.90
76394;BMP180;65216;51.090;-115.352;2023-08-24T07:36:31;87029.60;;;21.90
76394;BMP180;65216;51.090;-115.352;2023-08-24T07:38:58;87020.20;;;21.90
76394;BMP180;65216;51.090;-115.352;2023-08-24T07:41:26;87019.20;;;21.90
76394;BMP180;65216;51.090;-115.352;2023-08-24T07:43:53;87017.00;;;21.84
76394;BMP180;65216;51.090;-115.352;2023-08-24T07:46:20;87010.40;;;21.80
76394;BMP180;65216;51.090;-115.352;2023-08-24T07:48:47;86987.60;;;21.80
76394;BMP180;65216;51.090;-115.352;2023-08-24T07:51:13;86991.40;;;21.80
76394;BMP180;65216;51.090;-115.352;2023-08-24T07:53:40;87002.80;;;21.80
76394;BMP180;65216;51.090;-115.352;2023-08-24T07:56:07;87009.00;;;21.78
76394;BMP180;65216;51.090;-115.352;2023-08-24T07:58:34;86992.60;;;21.70
76394;BMP180;65216;51.090;-115.352;2023-08-24T08:01:01;87008.60;;;21.70
76394;BMP180;65216;51.090;-115.352;2023-08-24T08:03:28;87006.60;;;21.70
76394;BMP180;65216;51.090;-115.352;2023-08-24T08:05:58;87005.00;;;21.70
76394;BMP180;65216;51.090;-115.352;2023-08-24T08:08:25;86999.80;;;21.70
76394;BMP180;65216;51.090;-115.352;2023-08-24T08:11:00;87007.80;;;21.70
76394;BMP180;65216;51.090;-115.352;2023-08-24T08:13:29;87001.00;;;21.66
76394;BMP180;65216;51.090;-115.352;2023-08-24T08:16:04;87004.40;;;21.66
76394;BMP180;65216;51.090;-115.352;2023-08-24T08:18:34;87009.60;;;21.64
76394;BMP180;65216;51.090;-115.352;2023-08-24T08:21:08;87017.00;;;21.60
76394;BMP180;65216;51.090;-115.352;2023-08-24T08:23:36;87009.80;;;21.60
76394;BMP180;65216;51.090;-115.352;2023-08-24T08:26:03;87014.80;;;21.60
76394;BMP180;65216;51.090;-115.352;2023-08-24T08:28:30;87016.00;;;21.60
76394;BMP180;65216;51.090;-115.352;2023-08-24T08:31:00;87022.40;;;21.60
76394;BMP180;65216;51.090;-115.352;2023-08-24T08:33:27;87017.80;;;21.60
76394;BMP180;65216;51.090;-115.352;2023-08-24T08:35:54;87028.60;;;21.60
76394;BMP180;65216;51.090;-115.352;2023-08-24T08:38:21;87010.40;;;21.60
76394;BMP180;65216;51.090;-115.352;2023-08-24T08:41:03;87014.00;;;21.60
76394;BMP180;65216;51.090;-115.352;2023-08-24T08:43:30;87015.60;;;21.60
76394;BMP180;65216;51.090;-115.352;2023-08-24T08:45:59;87016.60;;;21.60
76394;BMP180;65216;51.090;-115.352;2023-08-24T08:48:31;87023.80;;;21.60
76394;BMP180;65216;51.090;-115.352;2023-08-24T08:50:58;87034.20;;;21.60
76394;BMP180;65216;51.090;-115.352;2023-08-24T08:53:27;87033.20;;;21.60
76394;BMP180;65216;51.090;-115.352;2023-08-24T08:55:55;87034.20;;;21.60
76394;BMP180;65216;51.090;-115.352;2023-08-24T08:58:27;87023.00;;;21.60
76394;BMP180;65216;51.090;-115.352;2023-08-24T09:00:55;87029.20;;;21.62
76394;BMP180;65216;51.090;-115.352;2023-08-24T09:03:23;87035.40;;;21.60
76394;BMP180;65216;51.090;-115.352;2023-08-24T09:05:50;87038.00;;;21.68
76394;BMP180;65216;51.090;-115.352;2023-08-24T09:08:17;87031.60;;;21.70
76394;BMP180;65216;51.090;-115.352;2023-08-24T09:10:47;87038.80;;;21.70
76394;BMP180;65216;51.090;-115.352;2023-08-24T09:13:14;87035.60;;;21.70
76394;BMP180;65216;51.090;-115.352;2023-08-24T09:15:41;87053.80;;;21.70
76394;BMP180;65216;51.090;-115.352;2023-08-24T09:18:08;87037.20;;;21.70
76394;BMP180;65216;51.090;-115.352;2023-08-24T09:20:36;87040.00;;;21.70
76394;BMP180;65216;51.090;-115.352;2023-08-24T09:23:03;87044.40;;;21.70
76394;BMP180;65216;51.090;-115.352;2023-08-24T09:25:30;87041.60;;;21.70
76394;BMP180;65216;51.090;-115.352;2023-08-24T09:28:03;87048.20;;;21.70
76394;BMP180;65216;51.090;-115.352;2023-08-24T09:30:37;87046.80;;;21.70
76394;BMP180;65216;51.090;-115.352;2023-08-24T09:33:09;87042.60;;;21.70
76394;BMP180;65216;51.090;-115.352;2023-08-24T09:35:37;87052.00;;;21.70
76394;BMP180;65216;51.090;-115.352;2023-08-24T09:38:23;87056.20;;;21.70
76394;BMP180;65216;51.090;-115.352;2023-08-24T09:40:55;87058.00;;;21.70
76394;BMP180;65216;51.090;-115.352;2023-08-24T09:43:23;87053.60;;;21.70
76394;BMP180;65216;51.090;-115.352;2023-08-24T09:45:51;87048.60;;;21.70
76394;BMP180;65216;51.090;-115.352;2023-08-24T09:48:19;87043.40;;;21.70
76394;BMP180;65216;51.090;-115.352;2023-08-24T09:50:49;87048.80;;;21.70
76394;BMP180;65216;51.090;-115.352;2023-08-24T09:53:25;87056.00;;;21.70
76394;BMP180;65216;51.090;-115.352;2023-08-24T09:58:23;87044.40;;;21.70
76394;BMP180;65216;51.090;-115.352;2023-08-24T10:00:51;87049.00;;;21.70
76394;BMP180;65216;51.090;-115.352;2023-08-24T10:03:21;87047.20;;;21.70
76394;BMP180;65216;51.090;-115.352;2023-08-24T10:05:55;87036.80;;;21.70
76394;BMP180;65216;51.090;-115.352;2023-08-24T10:08:46;87033.60;;;21.70
76394;BMP180;65216;51.090;-115.352;2023-08-24T10:11:24;87043.00;;;21.70
76394;BMP180;65216;51.090;-115.352;2023-08-24T10:14:24;87044.00;;;21.70
76394;BMP180;65216;51.090;-115.352;2023-08-24T10:16:53;87053.60;;;21.70
76394;BMP180;65216;51.090;-115.352;2023-08-24T10:19:23;87051.20;;;21.70
76394;BMP180;65216;51.090;-115.352;2023-08-24T10:21:53;87054.40;;;21.70
76394;BMP180;65216;51.090;-115.352;2023-08-24T10:24:23;87057.40;;;21.70
76394;BMP180;65216;51.090;-115.352;2023-08-24T10:26:51;87063.40;;;21.70
76394;BMP180;65216;51.090;-115.352;2023-08-24T10:29:20;87059.40;;;21.70
76394;BMP180;65216;51.090;-115.352;2023-08-24T10:31:49;87055.00;;;21.70
76394;BMP180;65216;51.090;-115.352;2023-08-24T10:34:17;87061.60;;;21.70
76394;BMP180;65216;51.090;-115.352;2023-08-24T10:36:47;87063.00;;;21.70
76394;BMP180;65216;51.090;-115.352;2023-08-24T10:39:15;87057.20;;;21.70
76394;BMP180;65216;51.090;-115.352;2023-08-24T10:41:51;87051.00;;;21.70
76394;BMP180;65216;51.090;-115.352;2023-08-24T10:44:43;87053.40;;;21.70
76394;BMP180;65216;51.090;-115.352;2023-08-24T10:47:22;87062.20;;;21.70
76394;BMP180;65216;51.090;-115.352;2023-08-24T10:54:52;87073.60;;;21.70
76394;BMP180;65216;51.090;-115.352;2023-08-24T10:57:24;87070.20;;;21.70
76394;BMP180;65216;51.090;-115.352;2023-08-24T11:00:12;87064.20;;;21.70
76394;BMP180;65216;51.090;-115.352;2023-08-24T11:02:49;87066.20;;;21.70
76394;BMP180;65216;51.090;-115.352;2023-08-24T11:08:05;87055.60;;;21.70
76394;BMP180;65216;51.090;-115.352;2023-08-24T11:20:47;87068.20;;;21.70
76394;BMP180;65216;51.090;-115.352;2023-08-24T11:23:19;87069.80;;;21.70
76394;BMP180;65216;51.090;-115.352;2023-08-24T11:25:48;87061.80;;;21.70
76394;BMP180;65216;51.090;-115.352;2023-08-24T11:28:20;87055.80;;;21.70
76394;BMP180;65216;51.090;-115.352;2023-08-24T11:30:47;87057.20;;;21.70
76394;BMP180;65216;51.090;-115.352;2023-08-24T11:33:15;87056.80;;;21.70
76394;BMP180;65216;51.090;-115.352;2023-08-24T11:35:46;87051.40;;;21.70
76394;BMP180;65216;51.090;-115.352;2023-08-24T11:38:13;87048.00;;;21.78
76394;BMP180;65216;51.090;-115.352;2023-08-24T11:40:40;87053.40;;;21.80
76394;BMP180;65216;51.090;-115.352;2023-08-24T11:43:07;87047.40;;;21.76
76394;BMP180;65216;51.090;-115.352;2023-08-24T11:45:38;87053.40;;;21.80
76394;BMP180;65216;51.090;-115.352;2023-08-24T11:48:07;87054.40;;;21.80
76394;BMP180;65216;51.090;-115.352;2023-08-24T11:50:34;87059.80;;;21.80
76394;BMP180;65216;51.090;-115.352;2023-08-24T11:53:01;87056.40;;;21.80
76394;BMP180;65216;51.090;-115.352;2023-08-24T11:55:29;87057.60;;;21.80
76394;BMP180;65216;51.090;-115.352;2023-08-24T11:57:56;87062.20;;;21.80
76394;BMP180;65216;51.090;-115.352;2023-08-24T12:00:23;87072.60;;;21.80
76394;BMP180;65216;51.090;-115.352;2023-08-24T12:02:51;87076.80;;;21.80
76394;BMP180;65216;51.090;-115.352;2023-08-24T12:05:24;87073.80;;;21.80
76394;BMP180;65216;51.090;-115.352;2023-08-24T12:07:55;87079.20;;;21.88
76394;BMP180;65216;51.090;-115.352;2023-08-24T12:10:25;87087.00;;;21.84
76394;BMP180;65216;51.090;-115.352;2023-08-24T12:13:03;87083.80;;;21.82
76394;BMP180;65216;51.090;-115.352;2023-08-24T12:15:34;87091.80;;;21.88
76394;BMP180;65216;51.090;-115.352;2023-08-24T12:18:14;87078.40;;;21.90
76394;BMP180;65216;51.090;-115.352;2023-08-24T12:20:42;87090.80;;;21.82
76394;BMP180;65216;51.090;-115.352;2023-08-24T12:23:11;87089.80;;;21.82
76394;BMP180;65216;51.090;-115.352;2023-08-24T12:25:42;87098.40;;;21.80
76394;BMP180;65216;51.090;-115.352;2023-08-24T12:28:15;87095.00;;;21.80
76394;BMP180;65216;51.090;-115.352;2023-08-24T12:30:51;87103.20;;;21.80
76394;BMP180;65216;51.090;-115.352;2023-08-24T12:33:26;87102.40;;;21.80
76394;BMP180;65216;51.090;-115.352;2023-08-24T12:35:59;87112.00;;;21.80
76394;BMP180;65216;51.090;-115.352;2023-08-24T12:38:27;87115.00;;;21.80
76394;BMP180;65216;51.090;-115.352;2023-08-24T12:40:54;87119.80;;;21.80
76394;BMP180;65216;51.090;-115.352;2023-08-24T12:43:21;87115.60;;;21.80
76394;BMP180;65216;51.090;-115.352;2023-08-24T12:45:48;87134.20;;;21.80
76394;BMP180;65216;51.090;-115.352;2023-08-24T12:48:15;87144.20;;;21.80
76394;BMP180;65216;51.090;-115.352;2023-08-24T12:50:42;87136.80;;;21.80
76394;BMP180;65216;51.090;-115.352;2023-08-24T12:53:09;87128.20;;;21.80
76394;BMP180;65216;51.090;-115.352;2023-08-24T12:55:39;87131.40;;;21.80
76394;BMP180;65216;51.090;-115.352;2023-08-24T12:58:12;87137.00;;;21.80
76394;BMP180;65216;51.090;-115.352;2023-08-24T13:00:39;87140.40;;;21.80
76394;BMP180;65216;51.090;-115.352;2023-08-24T13:03:05;87132.60;;;21.80
76394;BMP180;65216;51.090;-115.352;2023-08-24T13:05:33;87142.20;;;21.80
76394;BMP180;65216;51.090;-115.352;2023-08-24T13:07:59;87140.00;;;21.80
76394;BMP180;65216;51.090;-115.352;2023-08-24T13:10:26;87147.00;;;21.80
76394;BMP180;65216;51.090;-115.352;2023-08-24T13:12:53;87144.60;;;21.80
76394;BMP180;65216;51.090;-115.352;2023-08-24T13:15:21;87148.80;;;21.86
76394;BMP180;65216;51.090;-115.352;2023-08-24T13:17:51;87152.20;;;21.80
76394;BMP180;65216;51.090;-115.352;2023-08-24T13:20:17;87145.20;;;21.80
76394;BMP180;65216;51.090;-115.352;2023-08-24T13:22:44;87156.40;;;21.80
76394;BMP180;65216;51.090;-115.352;2023-08-24T13:25:11;87158.40;;;21.80
76394;BMP180;65216;51.090;-115.352;2023-08-24T13:27:38;87158.60;;;21.80
76394;BMP180;65216;51.090;-115.352;2023-08-24T13:30:09;87159.40;;;21.82
76394;BMP180;65216;51.090;-115.352;2023-08-24T13:32:36;87171.60;;;21.80
76394;BMP180;65216;51.090;-115.352;2023-08-24T13:35:06;87170.20;;;21.80
76394;BMP180;65216;51.090;-115.352;2023-08-24T13:37:33;87169.20;;;21.80
76394;BMP180;65216;51.090;-115.352;2023-08-24T13:40:00;87168.60;;;21.80
76394;BMP180;65216;51.090;-115.352;2023-08-24T13:42:28;87180.60;;;21.80
76394;BMP180;65216;51.090;-115.352;2023-08-24T13:44:54;87182.60;;;21.80
76394;BMP180;65216;51.090;-115.352;2023-08-24T13:47:24;87192.00;;;21.80
76394;BMP180;65216;51.090;-115.352;2023-08-24T13:49:51;87200.80;;;21.80
76394;BMP180;65216;51.090;-115.352;2023-08-24T13:52:18;87190.60;;;21.80
76394;BMP180;65216;51.090;-115.352;2023-08-24T13:54:45;87210.80;;;21.80
76394;BMP180;65216;51.090;-115.352;2023-08-24T13:57:13;87199.40;;;21.80
76394;BMP180;65216;51.090;-115.352;2023-08-24T13:59:41;87207.20;;;21.80
76394;BMP180;65216;51.090;-115.352;2023-08-24T14:02:10;87210.80;;;21.80
76394;BMP180;65216;51.090;-115.352;2023-08-24T14:04:38;87215.40;;;21.80
76394;BMP180;65216;51.090;-115.352;2023-08-24T14:07:06;87209.60;;;21.80
76394;BMP180;65216;51.090;-115.352;2023-08-24T14:09:33;87216.20;;;21.80